createdAt,value
2018-05-15T00:01:26.674Z,18.50
2018-05-15T00:03:55.734Z,18.40
2018-05-15T00:06:24.077Z,18.30
2018-05-15T00:08:52.333Z,18.40
2018-05-15T00:11:21.437Z,18.30
2018-05-15T00:13:49.727Z,18.30
2018-05-15T00:16:18.060Z,18.30
2018-05-15T00:18:46.406Z,18.20
2018-05-15T00:21:14.779Z,18.20
2018-05-15T00:23:43.075Z,18.20
2018-05-15T00:26:11.401Z,18.10
2018-05-15T00:28:40.440Z,18.10
2018-05-15T00:31:08.745Z,18.00
2018-05-15T00:33:37.101Z,18.00
2018-05-15T00:36:05.435Z,18.00
2018-05-15T00:38:33.733Z,18.00
2018-05-15T00:41:02.095Z,17.90
2018-05-15T00:43:30.392Z,17.90
2018-05-15T00:45:58.709Z,17.90
2018-05-15T00:48:27.014Z,17.80
2018-05-15T00:50:56.111Z,17.70
2018-05-15T00:53:25.159Z,17.70
2018-05-15T00:55:53.497Z,17.70
2018-05-15T00:58:21.839Z,17.70
2018-05-15T01:00:50.227Z,17.60
2018-05-15T01:03:19.326Z,17.50
2018-05-15T01:05:48.450Z,17.50
2018-05-15T01:08:16.795Z,17.40
2018-05-15T01:10:45.878Z,17.40
2018-05-15T01:13:14.202Z,17.40
2018-05-15T01:15:42.554Z,17.40
2018-05-15T01:18:11.714Z,17.30
2018-05-15T01:23:40.666Z,17.30
2018-05-15T01:26:09.732Z,17.20
2018-05-15T01:28:38.040Z,17.10
2018-05-15T01:31:07.100Z,17.10
2018-05-15T01:33:35.455Z,17.10
2018-05-15T01:36:03.777Z,17.10
2018-05-15T01:38:32.107Z,17.00
2018-05-15T01:41:00.474Z,17.00
2018-05-15T01:43:28.721Z,17.00
2018-05-15T01:45:57.825Z,16.90
2018-05-15T01:48:26.895Z,16.90
2018-05-15T01:50:55.181Z,16.80
2018-05-15T01:53:24.241Z,16.90
2018-05-15T01:55:52.524Z,16.80
2018-05-15T01:58:20.816Z,16.80
2018-05-15T02:00:49.113Z,16.80
2018-05-15T02:03:18.201Z,16.70
2018-05-15T02:05:46.474Z,16.60
2018-05-15T02:08:14.774Z,16.60
2018-05-15T02:10:43.804Z,16.60
2018-05-15T02:13:12.110Z,16.50
2018-05-15T02:15:40.411Z,16.60
2018-05-15T02:18:09.466Z,16.50
2018-05-15T02:20:37.780Z,16.40
2018-05-15T02:23:06.094Z,16.50
2018-05-15T02:25:34.366Z,16.40
2018-05-15T02:28:02.680Z,16.40
2018-05-15T02:30:31.068Z,16.30
2018-05-15T02:33:00.112Z,16.30
2018-05-15T02:35:28.393Z,16.20
2018-05-15T02:37:56.656Z,16.20
2018-05-15T02:40:25.717Z,16.20
2018-05-15T02:42:54.005Z,16.10
2018-05-15T02:45:22.262Z,16.10
2018-05-15T02:47:50.551Z,16.10
2018-05-15T02:50:18.837Z,16.00
2018-05-15T02:52:47.144Z,16.00
2018-05-15T02:55:15.434Z,16.00
2018-05-15T02:57:43.860Z,15.90
2018-05-15T03:00:12.157Z,15.90
2018-05-15T03:02:41.272Z,15.80
2018-05-15T03:05:09.533Z,15.80
2018-05-15T03:07:38.777Z,15.80
2018-05-15T03:10:24.689Z,15.80
2018-05-15T03:12:58.080Z,15.80
2018-05-15T03:15:26.595Z,15.70
2018-05-15T03:18:01.458Z,15.70
2018-05-15T03:20:39.538Z,15.70
2018-05-15T03:23:10.863Z,15.60
2018-05-15T03:25:43.104Z,15.60
2018-05-15T03:28:17.504Z,15.60
2018-05-15T03:30:45.785Z,15.50
2018-05-15T03:33:15.660Z,15.50
2018-05-15T03:35:54.137Z,15.50
2018-05-15T03:38:35.031Z,15.50
2018-05-15T04:20:01.844Z,15.00
2018-05-15T04:22:30.101Z,15.00
2018-05-15T04:24:58.397Z,15.00
2018-05-15T04:27:26.661Z,15.00
2018-05-15T04:29:54.937Z,15.00
2018-05-15T04:32:23.311Z,15.00
2018-05-15T04:34:51.567Z,15.00
2018-05-15T04:37:19.868Z,15.00
2018-05-15T04:39:48.868Z,15.00
2018-05-15T04:42:17.150Z,14.90
2018-05-15T04:44:45.419Z,15.00
2018-05-15T04:47:13.637Z,15.00
2018-05-15T04:49:42.712Z,15.00
2018-05-15T04:52:11.030Z,14.90
2018-05-15T04:54:39.308Z,15.00
2018-05-15T04:57:07.610Z,15.00
2018-05-15T04:59:35.854Z,15.00
2018-05-15T05:02:04.212Z,15.00
2018-05-15T05:04:33.348Z,15.10
2018-05-15T05:07:02.624Z,15.00
2018-05-15T05:09:30.949Z,15.10
2018-05-15T05:11:59.255Z,15.10
2018-05-15T05:14:28.352Z,15.20
2018-05-15T05:16:57.404Z,15.20
2018-05-15T05:19:25.713Z,15.20
2018-05-15T05:21:53.991Z,15.30
2018-05-15T05:24:22.315Z,15.30
2018-05-15T05:26:50.590Z,15.40
2018-05-15T05:29:18.938Z,15.40
2018-05-15T05:31:47.999Z,15.50
2018-05-15T05:34:16.315Z,15.40
2018-05-15T05:36:45.371Z,15.60
2018-05-15T05:39:13.668Z,15.50
2018-05-15T05:41:41.997Z,15.70
2018-05-15T05:44:10.302Z,15.80
2018-05-15T05:46:38.634Z,15.90
2018-05-15T05:49:06.949Z,16.10
2018-05-15T05:51:35.254Z,16.20
2018-05-15T05:54:04.409Z,16.50
2018-05-15T05:56:33.526Z,16.70
2018-05-15T05:59:01.871Z,16.60
2018-05-15T06:01:30.191Z,16.80
2018-05-15T06:03:58.543Z,17.00
2018-05-15T06:06:26.820Z,17.10
2018-05-15T06:08:55.180Z,17.30
2018-05-15T06:11:23.476Z,17.50
2018-05-15T06:13:51.797Z,17.70
2018-05-15T06:16:20.100Z,17.90
2018-05-15T06:18:48.482Z,18.10
2018-05-15T06:21:16.791Z,18.20
2018-05-15T06:23:45.160Z,18.40
2018-05-15T06:26:13.476Z,18.60
2018-05-15T06:28:41.775Z,18.80
2018-05-15T06:31:10.089Z,19.00
2018-05-15T06:33:38.421Z,19.20
2018-05-15T06:36:06.710Z,19.30
2018-05-15T06:38:35.913Z,19.70
2018-05-15T06:41:04.209Z,19.60
2018-05-15T06:43:32.536Z,19.80
2018-05-15T06:46:00.865Z,20.00
2018-05-15T06:48:29.236Z,20.10
2018-05-15T06:50:57.538Z,20.20
2018-05-15T06:53:25.850Z,20.40
2018-05-15T06:55:54.135Z,20.50
2018-05-15T06:58:22.456Z,20.60
2018-05-15T07:00:50.821Z,20.70
2018-05-15T07:03:19.926Z,20.90
2018-05-15T07:05:48.197Z,20.80
2018-05-15T07:08:16.485Z,21.00
2018-05-15T07:13:45.092Z,21.10
2018-05-15T07:16:13.393Z,21.20
2018-05-15T07:18:41.733Z,21.20
2018-05-15T07:21:10.781Z,21.40
2018-05-15T07:23:39.130Z,21.30
2018-05-15T07:26:07.496Z,21.40
2018-05-15T07:28:35.826Z,21.50
2018-05-15T07:31:04.895Z,21.80
2018-05-15T07:33:33.233Z,21.70
2018-05-15T07:36:02.310Z,22.00
2018-05-15T07:38:30.689Z,21.90
2018-05-15T07:40:59.754Z,22.10
2018-05-15T07:43:28.036Z,22.10
2018-05-15T07:45:56.331Z,22.20
2018-05-15T07:48:24.679Z,22.20
2018-05-15T07:50:53.025Z,22.30
2018-05-15T07:53:21.334Z,22.40
2018-05-15T07:55:49.692Z,22.50
2018-05-15T07:58:17.994Z,22.60
2018-05-15T08:00:46.308Z,22.60
2018-05-15T08:03:15.375Z,22.70
2018-05-15T08:05:43.699Z,22.60
2018-05-15T08:08:12.074Z,22.70
2018-05-15T08:10:40.374Z,22.80
2018-05-15T08:13:08.731Z,22.80
2018-05-15T08:15:37.774Z,23.00
2018-05-15T08:20:40.667Z,23.10
2018-05-15T08:23:08.968Z,23.10
2018-05-15T08:25:37.380Z,23.20
2018-05-15T08:28:06.430Z,23.30
2018-05-15T08:30:34.802Z,23.30
2018-05-15T08:33:03.110Z,23.40
2018-05-15T08:35:31.445Z,23.40
2018-05-15T08:38:00.465Z,23.50
2018-05-15T08:40:28.808Z,23.40
2018-05-15T08:42:57.145Z,23.60
2018-05-15T08:45:26.266Z,23.60
2018-05-15T08:47:55.355Z,23.70
2018-05-15T08:50:23.661Z,23.70
2018-05-15T08:52:51.966Z,23.80
2018-05-15T08:55:20.273Z,23.80
2018-05-15T08:57:49.399Z,23.80
2018-05-15T09:00:17.745Z,23.80
2018-05-15T09:02:46.872Z,23.90
2018-05-15T09:05:15.184Z,23.80
2018-05-15T09:07:43.489Z,23.90
2018-05-15T09:10:11.896Z,24.00
2018-05-15T09:12:40.233Z,24.00
2018-05-15T09:15:08.550Z,24.10
2018-05-15T09:17:36.853Z,24.20
2018-05-15T09:20:05.206Z,24.20
2018-05-15T09:22:34.252Z,24.20
2018-05-15T09:25:02.577Z,24.20
2018-05-15T09:27:30.850Z,24.30
2018-05-15T09:29:59.929Z,24.30
2018-05-15T09:32:28.243Z,24.30
2018-05-15T09:34:56.533Z,24.30
2018-05-15T09:37:24.857Z,24.40
2018-05-15T09:39:53.165Z,24.40
2018-05-15T09:42:21.447Z,24.40
2018-05-15T09:44:49.748Z,24.40
2018-05-15T09:47:18.039Z,24.40
2018-05-15T09:49:46.369Z,24.40
2018-05-15T09:52:14.724Z,24.40
2018-05-15T09:54:43.008Z,24.50
2018-05-15T09:57:12.070Z,24.60
2018-05-15T09:59:40.372Z,24.60
2018-05-15T10:02:08.651Z,24.70
2018-05-15T10:04:36.969Z,24.70
2018-05-15T10:07:05.274Z,24.70
2018-05-15T10:09:33.540Z,24.70
2018-05-15T10:12:01.828Z,24.80
2018-05-15T10:14:30.139Z,24.70
2018-05-15T10:16:58.467Z,24.70
2018-05-15T10:19:27.572Z,24.80
2018-05-15T10:21:56.098Z,24.80
2018-05-15T10:24:41.476Z,24.90
2018-05-15T10:27:10.526Z,24.90
2018-05-15T10:29:38.821Z,24.80
2018-05-15T10:32:07.103Z,24.90
2018-05-15T10:34:35.381Z,24.90
2018-05-15T10:37:03.672Z,25.00
2018-05-15T10:39:31.977Z,25.00
2018-05-15T10:42:00.236Z,25.10
2018-05-15T10:44:29.268Z,25.30
2018-05-15T10:46:57.566Z,25.30
2018-05-15T10:49:25.824Z,25.50
2018-05-15T10:51:54.884Z,25.60
2018-05-15T10:54:23.989Z,25.60
2018-05-15T10:56:53.000Z,25.50
2018-05-15T10:59:21.392Z,25.50
2018-05-15T11:01:50.355Z,25.50
2018-05-15T11:04:19.514Z,25.40
2018-05-15T11:06:47.782Z,25.40
2018-05-15T11:09:16.091Z,25.40
2018-05-15T11:11:45.178Z,25.40
2018-05-15T11:14:13.456Z,25.40
2018-05-15T11:16:41.755Z,25.40
2018-05-15T11:19:28.718Z,25.40
2018-05-15T11:22:14.728Z,25.40
2018-05-15T11:24:53.891Z,25.50
2018-05-15T11:27:22.979Z,25.30
2018-05-15T11:32:52.491Z,25.30
2018-05-15T11:35:21.606Z,25.30
2018-05-15T11:37:50.684Z,25.30
2018-05-15T11:40:18.983Z,25.30
2018-05-15T11:42:48.029Z,25.50
2018-05-15T11:45:16.294Z,25.40
2018-05-15T11:47:44.827Z,25.60
2018-05-15T11:50:14.877Z,25.60
2018-05-15T11:52:42.504Z,25.60
2018-05-15T11:55:10.366Z,25.60
2018-05-15T11:57:38.642Z,25.60
2018-05-15T12:00:07.743Z,25.70
2018-05-15T12:02:36.799Z,25.70
2018-05-15T12:05:05.094Z,25.70
2018-05-15T12:07:33.381Z,25.80
2018-05-15T12:10:01.679Z,25.80
2018-05-15T12:12:30.747Z,25.90
2018-05-15T12:14:59.079Z,25.80
2018-05-15T12:17:28.121Z,25.90
2018-05-15T12:19:56.385Z,25.90
2018-05-15T12:22:24.699Z,25.90
2018-05-15T12:24:52.945Z,26.00
2018-05-15T12:27:21.249Z,26.00
2018-05-15T12:29:50.263Z,26.10
2018-05-15T12:32:18.552Z,26.10
2018-05-15T12:34:46.813Z,26.10
2018-05-15T12:37:15.136Z,26.20
2018-05-15T12:39:43.366Z,26.20
2018-05-15T12:42:11.685Z,26.20
2018-05-15T12:44:39.882Z,26.20
2018-05-15T12:47:08.166Z,26.20
2018-05-15T12:49:36.398Z,26.20
2018-05-15T12:52:04.653Z,26.10
2018-05-15T12:54:32.929Z,26.10
2018-05-15T12:57:01.220Z,26.10
2018-05-15T12:59:29.522Z,26.00
2018-05-15T13:01:57.799Z,26.00
2018-05-15T13:04:26.058Z,26.00
2018-05-15T13:06:54.348Z,25.90
2018-05-15T13:09:22.632Z,25.90
2018-05-15T13:11:50.936Z,25.90
2018-05-15T13:14:19.992Z,25.90
2018-05-15T13:16:48.247Z,25.90
2018-05-15T13:19:16.550Z,25.90
2018-05-15T13:21:44.809Z,25.90
2018-05-15T13:24:13.094Z,26.00
2018-05-15T13:26:41.361Z,26.10
2018-05-15T13:29:09.617Z,26.20
2018-05-15T13:31:37.909Z,26.30
2018-05-15T13:34:06.211Z,26.30
2018-05-15T13:36:34.477Z,26.30
2018-05-15T13:39:02.730Z,26.30
2018-05-15T13:41:31.481Z,26.30
2018-05-15T13:43:59.728Z,26.40
2018-05-15T13:46:28.124Z,26.50
2018-05-15T13:48:56.402Z,26.50
2018-05-15T13:51:24.674Z,26.50
2018-05-15T13:53:52.990Z,26.50
2018-05-15T13:56:22.048Z,26.50
2018-05-15T13:58:50.324Z,26.50
2018-05-15T14:01:18.620Z,26.60
2018-05-15T14:03:47.728Z,26.60
2018-05-15T14:06:16.788Z,26.50
2018-05-15T14:08:45.069Z,26.50
2018-05-15T14:11:13.401Z,26.50
2018-05-15T14:13:42.045Z,26.40
2018-05-15T14:16:10.344Z,26.40
2018-05-15T14:18:39.392Z,26.40
2018-05-15T14:21:07.620Z,26.40
2018-05-15T14:23:35.990Z,26.40
2018-05-15T14:26:05.061Z,26.40
2018-05-15T14:28:33.354Z,26.40
2018-05-15T14:31:02.448Z,26.50
2018-05-15T14:33:30.725Z,26.50
2018-05-15T14:35:59.801Z,26.60
2018-05-15T14:38:28.061Z,26.60
2018-05-15T14:40:56.371Z,26.60
2018-05-15T14:43:26.176Z,26.60
2018-05-15T14:45:54.470Z,26.60
2018-05-15T14:48:23.500Z,26.80
2018-05-15T14:54:13.814Z,26.90
2018-05-15T14:56:42.128Z,26.90
2018-05-15T14:59:10.394Z,27.00
2018-05-15T15:01:38.679Z,27.00
2018-05-15T15:04:06.969Z,27.10
2018-05-15T15:06:35.291Z,27.10
2018-05-15T15:09:03.590Z,27.10
2018-05-15T15:11:31.891Z,26.90
2018-05-15T15:14:00.186Z,26.90
2018-05-15T15:16:29.229Z,26.60
2018-05-15T15:18:57.526Z,26.60
2018-05-15T15:21:25.793Z,26.50
2018-05-15T15:23:54.159Z,26.30
2018-05-15T15:26:22.415Z,26.10
2018-05-15T15:28:50.685Z,26.00
2018-05-15T15:31:19.677Z,25.90
2018-05-15T15:33:48.737Z,25.70
2018-05-15T15:36:16.999Z,25.70
2018-05-15T15:38:45.317Z,25.40
2018-05-15T15:41:14.343Z,25.20
2018-05-15T15:43:42.736Z,25.10
2018-05-15T15:46:11.798Z,25.10
2018-05-15T15:48:40.871Z,25.20
2018-05-15T15:51:09.120Z,25.10
2018-05-15T15:53:37.433Z,25.20
2018-05-15T15:56:06.548Z,25.10
2018-05-15T15:58:34.857Z,25.10
2018-05-15T16:01:03.158Z,25.10
2018-05-15T16:03:31.461Z,25.10
2018-05-15T16:57:34.803Z,25.30
2018-05-15T17:02:47.772Z,25.20
2018-05-15T17:05:16.066Z,25.20
2018-05-15T17:07:44.357Z,25.10
2018-05-15T17:10:12.672Z,25.10
2018-05-15T17:12:41.781Z,25.00
2018-05-15T17:15:10.222Z,24.90
2018-05-15T17:17:38.512Z,25.00
2018-05-15T17:20:06.791Z,24.90
2018-05-15T17:22:35.094Z,24.90
2018-05-15T17:55:02.473Z,24.70
2018-05-15T17:57:30.753Z,24.60
2018-05-15T17:59:59.129Z,24.40
2018-05-15T18:02:27.324Z,24.20
2018-05-15T18:04:55.582Z,24.00
2018-05-15T18:07:23.903Z,23.80
2018-05-15T18:09:52.776Z,23.70
2018-05-15T18:12:21.052Z,23.60
2018-05-15T18:14:49.691Z,23.50
2018-05-15T18:17:18.006Z,23.40
2018-05-15T18:19:46.293Z,23.40
2018-05-15T18:22:14.580Z,23.30
2018-05-15T18:24:42.864Z,23.20
2018-05-15T18:27:11.111Z,23.20
2018-05-15T18:29:39.417Z,23.20
2018-05-15T18:32:07.709Z,23.30
2018-05-15T18:34:35.967Z,23.30
2018-05-15T18:37:04.217Z,23.30
2018-05-15T18:39:32.488Z,23.20
2018-05-15T18:42:00.755Z,23.20
2018-05-15T18:44:29.792Z,23.10
2018-05-15T18:46:58.034Z,23.10
2018-05-15T18:49:26.317Z,23.00
2018-05-15T18:51:54.611Z,22.90
2018-05-15T18:54:22.883Z,22.80
2018-05-15T18:56:51.143Z,22.80
2018-05-15T18:59:19.462Z,22.80
2018-05-15T19:01:47.728Z,22.80
2018-05-15T19:04:16.057Z,22.80
2018-05-15T19:06:45.062Z,22.80
2018-05-15T19:09:13.352Z,22.70
2018-05-15T19:11:41.628Z,22.80
2018-05-15T19:14:09.966Z,22.80
2018-05-15T19:16:38.990Z,22.80
2018-05-15T19:19:08.047Z,22.70
2018-05-15T19:21:36.297Z,22.70
2018-05-15T19:24:04.593Z,22.70
2018-05-15T19:26:32.864Z,22.70
2018-05-15T19:29:01.117Z,22.60
2018-05-15T19:31:35.011Z,22.60
2018-05-15T19:37:11.551Z,22.50
2018-05-15T19:39:47.708Z,22.50
2018-05-15T19:42:17.085Z,22.30
2018-05-15T19:44:45.332Z,22.30
2018-05-15T19:47:14.367Z,22.20
2018-05-15T19:49:42.696Z,22.20
